createdAt,value
2022-10-12T00:00:08.614Z,66.2
2022-10-12T00:05:08.125Z,66.22
2022-10-12T00:10:07.829Z,66.25
2022-10-12T00:15:08.516Z,66.25
2022-10-12T00:20:08.262Z,66.27
2022-10-12T00:25:07.991Z,66.26
2022-10-12T00:30:07.714Z,66.28
2022-10-12T00:35:08.432Z,66.31
2022-10-12T00:40:08.136Z,66.3
2022-10-12T00:45:07.806Z,66.32
2022-10-12T00:50:08.508Z,66.33
2022-10-12T00:55:08.183Z,66.33
2022-10-12T01:00:07.895Z,66.35
2022-10-12T01:05:08.601Z,66.34
2022-10-12T01:10:08.327Z,66.34
2022-10-12T01:15:08.035Z,66.38
2022-10-12T01:20:07.757Z,66.38
2022-10-12T01:25:08.446Z,66.38
2022-10-12T01:30:08.133Z,66.39
2022-10-12T01:35:09.835Z,66.4
2022-10-12T01:40:08.508Z,66.42
2022-10-12T01:45:08.217Z,66.43
2022-10-12T01:50:07.912Z,66.42
2022-10-12T01:55:08.597Z,66.45
2022-10-12T02:00:08.300Z,66.44
2022-10-12T02:05:07.994Z,66.43
2022-10-12T02:10:07.694Z,66.46
2022-10-12T02:15:08.369Z,66.45
2022-10-12T02:20:08.115Z,66.45
2022-10-12T02:25:07.804Z,66.45
2022-10-12T02:30:08.534Z,66.48
2022-10-12T02:35:08.251Z,66.46
2022-10-12T02:40:07.979Z,66.47
2022-10-12T02:45:07.684Z,66.46
2022-10-12T02:50:08.367Z,66.46
2022-10-12T02:55:08.063Z,66.46
2022-10-12T03:00:07.751Z,66.45
2022-10-12T03:05:08.449Z,66.44
2022-10-12T03:10:08.141Z,66.46
2022-10-12T03:15:07.824Z,66.46
2022-10-12T03:20:08.529Z,66.48
2022-10-12T03:25:08.275Z,66.48
2022-10-12T03:30:07.981Z,66.47
2022-10-12T03:35:07.745Z,66.5
2022-10-12T03:40:08.503Z,66.49
2022-10-12T03:45:08.198Z,66.48
2022-10-12T03:50:07.904Z,66.49
2022-10-12T03:55:08.612Z,66.5
2022-10-12T04:00:08.289Z,66.49
2022-10-12T04:05:02.197Z,66.51
2022-10-12T04:10:02.023Z,66.51
2022-10-12T04:15:01.846Z,66.52
2022-10-12T04:20:02.608Z,66.52
2022-10-12T04:25:02.458Z,66.54
2022-10-12T04:30:02.733Z,66.55
2022-10-12T04:35:02.494Z,66.56
2022-10-12T04:40:02.266Z,66.56
2022-10-12T04:45:02.018Z,66.58
2022-10-12T04:50:01.857Z,66.56
2022-10-12T04:55:02.709Z,66.59
2022-10-12T05:00:02.442Z,66.58
2022-10-12T05:05:02.280Z,66.61
2022-10-12T05:10:02.077Z,66.63
2022-10-12T05:15:01.849Z,66.64
2022-10-12T05:20:02.587Z,66.63
2022-10-12T05:25:02.391Z,66.64
2022-10-12T05:30:02.125Z,66.65
2022-10-12T05:35:02.102Z,66.66
2022-10-12T05:40:01.984Z,66.68
2022-10-12T05:45:01.721Z,66.68
2022-10-12T05:50:02.486Z,66.7
2022-10-12T05:55:02.313Z,66.69
2022-10-12T06:00:02.143Z,66.7
2022-10-12T06:05:01.973Z,66.73
2022-10-12T06:10:01.888Z,66.72
2022-10-12T06:15:02.622Z,66.73
2022-10-12T06:20:02.457Z,66.74
2022-10-12T06:25:02.480Z,66.74
2022-10-12T06:30:02.344Z,66.76
2022-10-12T06:35:02.158Z,66.78
2022-10-12T06:40:01.979Z,66.76
2022-10-12T06:45:01.816Z,66.8
2022-10-12T06:50:02.668Z,66.81
2022-10-12T06:55:02.509Z,66.8
2022-10-12T07:00:02.315Z,66.84
2022-10-12T07:05:02.146Z,66.81
2022-10-12T07:10:02.066Z,66.84
2022-10-12T07:15:01.910Z,66.82
2022-10-12T07:20:02.840Z,66.81
2022-10-12T07:25:02.673Z,66.77
2022-10-12T07:30:02.504Z,66.78
2022-10-12T07:35:02.351Z,66.76
2022-10-12T07:40:02.272Z,66.72
2022-10-12T07:45:02.211Z,66.65
2022-10-12T07:50:02.029Z,66.63
2022-10-12T07:55:01.769Z,66.61
2022-10-12T08:00:02.506Z,66.57
2022-10-12T08:05:02.360Z,66.54
2022-10-12T08:10:02.073Z,66.52
2022-10-12T08:15:01.917Z,66.49
2022-10-12T08:20:02.745Z,66.48
2022-10-12T08:25:02.484Z,66.45
2022-10-12T08:30:02.300Z,66.44
2022-10-12T08:35:02.257Z,66.39
2022-10-12T08:40:03.624Z,66.37
2022-10-12T08:45:02.693Z,66.32
2022-10-12T08:50:02.426Z,66.27
2022-10-12T08:55:02.166Z,66.22
2022-10-12T09:00:01.976Z,66.18
2022-10-12T09:05:01.695Z,66.16
2022-10-12T09:10:02.450Z,66.13
2022-10-12T09:15:02.306Z,66.08
2022-10-12T09:20:02.126Z,66.07
2022-10-12T09:25:01.925Z,66.05
2022-10-12T09:30:02.705Z,66.01
2022-10-12T09:35:02.554Z,66.02
2022-10-12T09:40:02.373Z,65.95
2022-10-12T09:45:02.183Z,65.93
2022-10-12T09:50:02.002Z,65.89
2022-10-12T09:55:04.824Z,65.85
2022-10-12T10:00:02.581Z,65.8
2022-10-12T10:05:02.459Z,65.77
2022-10-12T10:10:02.284Z,65.69
2022-10-12T10:15:02.350Z,65.66
2022-10-12T10:20:02.217Z,65.63
2022-10-12T10:25:02.071Z,65.57
2022-10-12T10:30:17.525Z,65.52
2022-10-12T10:35:02.618Z,65.47
2022-10-12T10:40:02.543Z,65.41
2022-10-12T10:45:02.289Z,65.35
2022-10-12T10:50:02.125Z,65.28
2022-10-12T10:55:04.116Z,65.24
2022-10-12T11:00:33.395Z,65.17
2022-10-12T11:05:01.915Z,65.08
2022-10-12T11:10:02.945Z,65.03
2022-10-12T11:15:01.795Z,64.95
2022-10-12T11:20:02.634Z,64.92
2022-10-12T11:25:02.462Z,64.84
2022-10-12T11:30:09.252Z,64.81
2022-10-12T11:35:02.608Z,64.76
2022-10-12T11:40:02.349Z,64.73
2022-10-12T11:45:02.151Z,64.68
2022-10-12T11:50:02.007Z,64.66
2022-10-12T11:55:01.942Z,64.63
2022-10-12T12:00:01.733Z,64.62
2022-10-12T12:05:02.514Z,64.63
2022-10-12T12:10:02.303Z,64.6
2022-10-12T12:15:02.073Z,64.56
2022-10-12T12:20:01.874Z,64.53
2022-10-12T12:25:05.892Z,64.48
2022-10-12T12:30:02.686Z,64.39
2022-10-12T12:35:02.598Z,64.32
2022-10-12T12:40:02.636Z,64.32
2022-10-12T12:45:02.448Z,64.3
2022-10-12T12:50:02.334Z,64.28
2022-10-12T12:55:02.280Z,64.23
2022-10-12T13:00:02.281Z,64.24
2022-10-12T13:05:12.182Z,64.25
2022-10-12T13:10:02.206Z,64.19
2022-10-12T13:15:02.034Z,64.18
2022-10-12T13:20:01.885Z,64.2
2022-10-12T13:25:01.697Z,64.19
2022-10-12T13:30:02.451Z,64.18
2022-10-12T13:35:02.272Z,64.17
2022-10-12T13:40:02.301Z,64.14
2022-10-12T13:45:02.070Z,64.19
2022-10-12T13:50:01.906Z,64.18
2022-10-12T13:55:02.729Z,64.17
2022-10-12T14:00:02.550Z,64.23
2022-10-12T14:05:02.278Z,64.25
2022-10-12T14:10:02.114Z,64.24
2022-10-12T14:15:01.962Z,64.25
2022-10-12T14:20:01.789Z,64.25
2022-10-12T14:25:02.706Z,64.24
2022-10-12T14:30:02.535Z,64.23
2022-10-12T14:35:02.373Z,64.23
2022-10-12T14:40:02.143Z,64.26
2022-10-12T14:45:01.928Z,64.26
2022-10-12T14:50:02.785Z,64.28
2022-10-12T14:55:02.625Z,64.3
2022-10-12T15:00:02.440Z,64.32
2022-10-12T15:05:02.459Z,64.29
2022-10-12T15:10:02.303Z,64.28
2022-10-12T15:15:02.381Z,64.29
2022-10-12T15:20:02.262Z,64.28
2022-10-12T15:25:02.200Z,64.27
2022-10-12T15:30:02.127Z,64.28
2022-10-12T15:35:01.940Z,64.3
2022-10-12T15:40:01.790Z,64.29
2022-10-12T15:45:02.821Z,64.34
2022-10-12T15:50:02.564Z,64.34
2022-10-12T15:55:02.276Z,64.39
2022-10-12T16:00:02.016Z,64.39
2022-10-12T16:05:01.950Z,64.4
2022-10-12T16:10:02.816Z,64.43
2022-10-12T16:15:02.632Z,64.45
2022-10-12T16:20:02.457Z,64.48
2022-10-12T16:25:02.175Z,64.5
2022-10-12T16:30:02.038Z,64.49
2022-10-12T16:35:01.871Z,64.52
2022-10-12T16:40:02.684Z,64.54
2022-10-12T16:45:02.507Z,64.58
2022-10-12T16:50:02.285Z,64.64
2022-10-12T16:55:02.101Z,64.67
2022-10-12T17:00:01.898Z,64.73
2022-10-12T17:05:02.872Z,64.78
2022-10-12T17:10:02.681Z,64.82
2022-10-12T17:15:02.541Z,64.86
2022-10-12T17:25:02.183Z,64.88
2022-10-12T17:30:02.111Z,64.96
2022-10-12T17:35:01.961Z,65.04
2022-10-12T17:40:01.977Z,65.13
2022-10-12T17:45:01.866Z,65.21
2022-10-12T17:50:02.780Z,65.28
2022-10-12T17:55:02.692Z,65.33
2022-10-12T18:00:02.863Z,65.35
2022-10-12T18:05:02.788Z,65.4
2022-10-12T18:10:02.702Z,65.52
2022-10-12T18:15:02.671Z,65.6
2022-10-12T18:20:02.713Z,65.66
2022-10-12T18:25:02.647Z,65.72
2022-10-12T18:30:02.702Z,65.81
2022-10-12T18:35:02.606Z,65.88
2022-10-12T18:40:02.387Z,65.93
2022-10-12T18:45:02.309Z,66.0
2022-10-12T18:50:02.178Z,66.02
2022-10-12T18:55:02.036Z,66.09
2022-10-12T19:00:02.036Z,66.12
2022-10-12T19:05:01.854Z,66.19
2022-10-12T19:10:02.752Z,66.23
2022-10-12T19:15:02.602Z,66.28
2022-10-12T19:20:02.494Z,66.36
2022-10-12T19:25:02.278Z,66.45
2022-10-12T19:30:02.248Z,66.48
2022-10-12T19:35:02.211Z,66.54
2022-10-12T19:40:07.299Z,66.65
2022-10-12T19:45:02.559Z,66.69
2022-10-12T19:50:02.362Z,66.73
2022-10-12T19:55:02.276Z,66.79
2022-10-12T20:00:02.210Z,66.84
2022-10-12T20:05:02.107Z,66.91
2022-10-12T20:10:02.236Z,66.94
2022-10-12T20:15:02.396Z,67.0
2022-10-12T20:20:02.392Z,67.05
2022-10-12T20:25:06.940Z,67.15
2022-10-12T20:30:02.287Z,67.17
2022-10-12T20:35:14.926Z,67.22
2022-10-12T20:40:08.659Z,67.26
2022-10-12T20:45:08.388Z,67.28
2022-10-12T20:50:08.053Z,67.29
2022-10-12T20:55:07.761Z,67.3
2022-10-12T21:00:08.460Z,67.29
2022-10-12T21:05:08.128Z,67.31
2022-10-12T21:10:07.843Z,67.33
2022-10-12T21:15:08.560Z,67.33
2022-10-12T21:20:08.251Z,67.33
2022-10-12T21:25:07.972Z,67.36
2022-10-12T21:30:07.659Z,67.34
2022-10-12T21:35:08.518Z,67.34
2022-10-12T21:40:08.249Z,67.34
2022-10-12T21:45:07.933Z,67.34
2022-10-12T21:50:08.589Z,67.34
2022-10-12T21:55:08.265Z,67.33
2022-10-12T22:00:08.051Z,67.34
2022-10-12T22:05:07.786Z,67.33
2022-10-12T22:10:08.483Z,67.32
2022-10-12T22:15:08.194Z,67.33
2022-10-12T22:20:07.882Z,67.32
2022-10-12T22:25:08.589Z,67.3
2022-10-12T22:30:08.295Z,67.29
2022-10-12T22:35:08.008Z,67.29
2022-10-12T22:40:07.721Z,67.27
2022-10-12T22:45:08.434Z,67.28
2022-10-12T22:50:08.142Z,67.27
2022-10-12T22:55:07.835Z,67.26
2022-10-12T23:01:02.060Z,67.22
2022-10-12T23:05:07.782Z,67.23
2022-10-12T23:10:07.869Z,67.21
2022-10-12T23:15:08.541Z,67.19
2022-10-12T23:20:08.285Z,67.19
2022-10-12T23:25:07.930Z,67.16
2022-10-12T23:30:08.614Z,67.18
2022-10-12T23:35:08.317Z,67.15
2022-10-12T23:40:08.013Z,67.17
2022-10-12T23:45:07.728Z,67.15
2022-10-12T23:50:08.430Z,67.15
2022-10-12T23:55:08.131Z,67.13
